Time;durP1;ratioP1;P1;durP2;ratioP2;P2;SDS_P1;SDS_P2;PMS_P1;PMS_P2;Temp;Humidity;BMP_temperature;BMP_pressure;BME280_temperature;BME280_humidity;BME280_pressure;Samples;Min_cycle;Max_cycle;Signal;HPM_P1;HPM_P2
2020/12/07 00:00:39;;;;;;;29.83;19.90;;;8.70;98.80;;;;;;5092531;28;20191;-72
2020/12/07 00:03:05;;;;;;;29.63;20.50;;;8.70;98.70;;;;;;5093252;28;20529;-72
2020/12/07 00:05:31;;;;;;;28.77;19.10;;;8.70;99.10;;;;;;5092867;28;20395;-72
2020/12/07 00:07:58;;;;;;;28.10;20.00;;;8.70;98.70;;;;;;5093530;28;20607;-72
2020/12/07 00:10:23;;;;;;;30.40;19.00;;;8.70;98.80;;;;;;5092677;28;20515;-73
2020/12/07 00:12:49;;;;;;;30.63;20.80;;;8.70;98.80;;;;;;5093154;28;20405;-72
2020/12/07 00:15:15;;;;;;;28.07;20.00;;;8.80;98.80;;;;;;5092970;28;20183;-72
2020/12/07 00:17:40;;;;;;;29.97;20.20;;;8.70;98.60;;;;;;5092498;28;20188;-72
2020/12/07 00:20:07;;;;;;;26.87;18.90;;;8.70;98.60;;;;;;5093560;28;20618;-72
2020/12/07 00:22:33;;;;;;;26.30;18.10;;;8.70;98.70;;;;;;5074031;28;20177;-73
2020/12/07 00:25:00;;;;;;;27.43;19.07;;;8.70;98.60;;;;;;5093094;28;20415;-73
2020/12/07 00:27:27;;;;;;;23.50;17.93;;;8.70;98.60;;;;;;5091628;28;20362;-72
2020/12/07 00:29:54;;;;;;;28.33;17.70;;;8.70;98.70;;;;;;5092849;28;20477;-72
2020/12/07 00:32:21;;;;;;;24.47;16.93;;;8.80;98.60;;;;;;5092490;28;20406;-73
2020/12/07 00:34:48;;;;;;;24.53;17.23;;;8.80;98.40;;;;;;5093037;28;20406;-72
2020/12/07 00:37:14;;;;;;;23.40;16.60;;;8.80;98.50;;;;;;5093105;28;20398;-73
2020/12/07 00:39:40;;;;;;;23.87;16.80;;;8.80;98.50;;;;;;5082735;28;20429;-73
2020/12/07 00:42:09;;;;;;;21.93;16.40;;;8.80;98.40;;;;;;5072834;28;20792;-73
2020/12/07 00:44:38;;;;;;;22.37;16.13;;;8.80;98.40;;;;;;5088865;28;20211;-73
2020/12/07 00:47:05;;;;;;;22.40;15.40;;;8.70;98.30;;;;;;5092479;28;20502;-72
2020/12/07 00:49:31;;;;;;;22.90;14.67;;;8.70;98.40;;;;;;5090640;28;20453;-73
2020/12/07 00:51:57;;;;;;;21.47;15.13;;;8.70;98.40;;;;;;5091247;28;20415;-73
2020/12/07 00:54:23;;;;;;;17.57;14.47;;;8.70;98.40;;;;;;5090065;28;20483;-73
2020/12/07 00:56:56;;;;;;;17.03;13.40;;;8.70;98.40;;;;;;5091640;28;20533;-73
2020/12/07 00:59:23;;;;;;;18.10;14.60;;;8.70;98.50;;;;;;5090342;28;20422;-73
2020/12/07 01:01:50;;;;;;;20.53;15.13;;;8.70;98.60;;;;;;5088690;28;20421;-73
2020/12/07 01:04:16;;;;;;;19.80;14.10;;;8.70;98.60;;;;;;5091198;28;20744;-73
2020/12/07 01:06:45;;;;;;;15.60;12.87;;;8.80;98.50;;;;;;5090101;28;20909;-72
2020/12/07 01:09:18;;;;;;;17.13;12.40;;;8.70;98.40;;;;;;5087425;28;20469;-73
2020/12/07 01:11:45;;;;;;;15.00;12.93;;;8.80;98.40;;;;;;5089911;28;20508;-73
2020/12/07 01:14:12;;;;;;;15.60;12.67;;;8.80;98.40;;;;;;5091759;28;20407;-73
2020/12/07 01:16:38;;;;;;;15.50;12.33;;;8.80;98.30;;;;;;5090525;28;20591;-73
2020/12/07 01:19:08;;;;;;;14.40;11.80;;;8.80;98.30;;;;;;5090783;28;20449;-73
2020/12/07 01:21:35;;;;;;;15.70;12.47;;;8.80;98.30;;;;;;5088122;28;20516;-73
2020/12/07 01:24:01;;;;;;;15.10;12.20;;;8.80;98.30;;;;;;5091049;28;20740;-73
2020/12/07 01:26:28;;;;;;;12.40;11.17;;;8.80;98.30;;;;;;5081928;28;20428;-73
2020/12/07 01:28:54;;;;;;;12.80;11.50;;;8.80;98.40;;;;;;5091176;28;20389;-73
2020/12/07 01:31:20;;;;;;;12.53;10.80;;;8.80;98.50;;;;;;5090688;28;20426;-74
2020/12/07 01:33:46;;;;;;;11.60;10.50;;;8.80;98.10;;;;;;5090237;28;20168;-73
2020/12/07 01:36:13;;;;;;;12.27;11.00;;;8.80;98.00;;;;;;5088299;28;20952;-73
2020/12/07 01:38:39;;;;;;;11.60;10.40;;;8.80;98.00;;;;;;5090247;28;20410;-73
2020/12/07 01:41:04;;;;;;;11.30;10.10;;;8.70;98.00;;;;;;5082952;28;20421;-73
2020/12/07 01:43:30;;;;;;;11.00;9.83;;;8.70;98.00;;;;;;5072330;28;20458;-72
2020/12/07 01:45:57;;;;;;;11.53;9.87;;;8.60;98.20;;;;;;5090814;28;20422;-73
2020/12/07 01:48:25;;;;;;;10.20;9.20;;;8.70;98.30;;;;;;5089915;28;20190;-73
2020/12/07 01:50:52;;;;;;;10.93;9.83;;;8.70;98.20;;;;;;5090430;28;20794;-73
2020/12/07 01:53:20;;;;;;;9.73;8.83;;;8.70;98.30;;;;;;5072334;28;20415;-74
2020/12/07 01:55:46;;;;;;;11.73;9.43;;;8.70;98.30;;;;;;5085151;28;20400;-73
2020/12/07 01:58:11;;;;;;;10.53;9.53;;;8.70;98.30;;;;;;5087873;28;20493;-73
2020/12/07 02:00:37;;;;;;;10.73;9.73;;;8.70;98.30;;;;;;5090236;28;20626;-72
2020/12/07 02:03:04;;;;;;;10.87;9.77;;;8.70;98.30;;;;;;5090691;28;20175;-73
2020/12/07 02:05:31;;;;;;;9.60;8.70;;;8.70;98.30;;;;;;5089826;28;20177;-73
2020/12/07 02:08:12;;;;;;;9.73;8.73;;;8.70;98.30;;;;;;5090610;28;20747;-73
2020/12/07 02:10:39;;;;;;;9.50;8.50;;;8.70;98.30;;;;;;5087940;28;20465;-73
2020/12/07 02:13:05;;;;;;;9.57;8.67;;;8.70;98.10;;;;;;5089949;28;20411;-73
2020/12/07 02:15:31;;;;;;;9.00;8.10;;;8.70;98.20;;;;;;5089732;28;20409;-73
2020/12/07 02:17:57;;;;;;;8.63;7.83;;;8.70;98.30;;;;;;5072052;28;20413;-72
2020/12/07 02:20:22;;;;;;;9.40;8.30;;;8.70;98.30;;;;;;5093523;28;20953;-73
2020/12/07 02:22:48;;;;;;;9.30;8.50;;;8.70;98.40;;;;;;5093916;28;20176;-73
2020/12/07 02:25:14;;;;;;;9.87;8.67;;;8.70;98.40;;;;;;5093865;28;20182;-73
2020/12/07 02:27:40;;;;;;;8.60;7.70;;;8.70;98.40;;;;;;5089622;28;20451;-72
2020/12/07 02:30:06;;;;;;;8.43;7.67;;;8.70;98.20;;;;;;5093489;28;20247;-72
2020/12/07 02:32:31;;;;;;;9.30;8.40;;;8.80;98.20;;;;;;5089977;28;20464;-72
2020/12/07 02:34:57;;;;;;;9.47;8.57;;;8.80;98.30;;;;;;5093983;28;20181;-72
2020/12/07 02:37:23;;;;;;;9.30;8.50;;;8.80;98.30;;;;;;5093206;28;20212;-73
2020/12/07 02:39:49;;;;;;;9.17;8.27;;;8.80;98.30;;;;;;5093870;28;20640;-72
2020/12/07 02:42:14;;;;;;;10.03;8.27;;;8.80;98.30;;;;;;5093365;28;20701;-72
2020/12/07 02:44:40;;;;;;;9.03;8.23;;;8.80;98.40;;;;;;5093639;28;20411;-72
2020/12/07 02:47:06;;;;;;;9.53;8.60;;;8.80;98.50;;;;;;5094660;28;20177;-72
2020/12/07 02:49:32;;;;;;;9.17;8.27;;;8.80;98.90;;;;;;5093968;28;20202;-72
2020/12/07 02:51:57;;;;;;;9.43;8.63;;;8.80;98.70;;;;;;5095054;28;20532;-72
2020/12/07 02:54:23;;;;;;;9.47;8.50;;;8.80;98.70;;;;;;5094061;28;20321;-73
2020/12/07 02:56:49;;;;;;;9.20;8.40;;;8.80;99.00;;;;;;5088614;28;20204;-72
2020/12/07 02:59:14;;;;;;;9.70;8.70;;;8.80;98.60;;;;;;5074794;28;20258;-73
2020/12/07 03:01:40;;;;;;;9.73;8.83;;;8.90;98.60;;;;;;5073359;28;20263;-72
2020/12/07 03:04:06;;;;;;;8.90;8.10;;;8.90;98.60;;;;;;5074169;28;20181;-73
2020/12/07 03:06:32;;;;;;;8.70;7.90;;;8.80;98.50;;;;;;5073471;28;20173;-73
2020/12/07 03:08:57;;;;;;;9.00;8.20;;;8.80;98.60;;;;;;5074541;28;20529;-73
2020/12/07 03:11:24;;;;;;;9.23;8.37;;;8.70;98.50;;;;;;5073729;28;20662;-74
2020/12/07 03:13:50;;;;;;;9.33;8.30;;;8.60;99.00;;;;;;5074448;28;20524;-72
2020/12/07 03:16:16;;;;;;;8.63;7.73;;;8.70;99.10;;;;;;5074283;28;20413;-73
2020/12/07 03:18:42;;;;;;;10.47;9.43;;;8.70;99.20;;;;;;5055709;28;20414;-73
2020/12/07 03:21:08;;;;;;;8.77;7.93;;;8.70;99.10;;;;;;5074354;28;20417;-73
2020/12/07 03:23:34;;;;;;;8.53;7.73;;;8.70;99.10;;;;;;5073538;28;20399;-73
2020/12/07 03:25:59;;;;;;;9.53;8.60;;;8.70;99.00;;;;;;5074229;28;20678;-72
2020/12/07 03:28:25;;;;;;;9.80;8.90;;;8.70;99.10;;;;;;5072609;28;20666;-73
2020/12/07 03:30:51;;;;;;;9.70;8.77;;;8.70;99.10;;;;;;5073252;28;20228;-72
2020/12/07 03:33:17;;;;;;;9.40;8.50;;;8.70;99.10;;;;;;5074048;28;20256;-73
2020/12/07 03:35:42;;;;;;;9.63;8.27;;;8.70;99.10;;;;;;5072917;28;20172;-73
2020/12/07 03:38:08;;;;;;;9.40;8.50;;;8.60;99.30;;;;;;5074192;28;20177;-72
2020/12/07 03:40:34;;;;;;;9.97;8.67;;;8.60;99.30;;;;;;5072606;28;20640;-73
2020/12/07 03:43:00;;;;;;;8.83;8.03;;;8.60;99.20;;;;;;5073492;28;20222;-72
2020/12/07 03:45:27;;;;;;;10.03;9.03;;;8.70;99.30;;;;;;5073170;28;20411;-73
2020/12/07 03:47:53;;;;;;;8.30;7.47;;;8.70;99.10;;;;;;5073844;28;20407;-72
2020/12/07 03:50:19;;;;;;;9.23;8.33;;;8.70;99.00;;;;;;5073707;28;20454;-72
2020/12/07 03:52:45;;;;;;;9.30;8.40;;;8.60;98.90;;;;;;5072823;28;20417;-72
2020/12/07 03:55:11;;;;;;;9.50;8.70;;;8.70;99.00;;;;;;5073236;28;20450;-72
2020/12/07 03:57:37;;;;;;;8.60;7.80;;;8.60;99.00;;;;;;5080806;28;20267;-73
2020/12/07 04:00:06;;;;;;;9.57;8.60;;;8.70;99.00;;;;;;5093665;28;20523;-72
2020/12/07 04:02:33;;;;;;;10.00;9.00;;;8.70;99.00;;;;;;5092970;28;20173;-73
2020/12/07 04:05:07;;;;;;;10.03;9.03;;;8.70;98.70;;;;;;5093722;28;20415;-72
2020/12/07 04:07:32;;;;;;;10.03;9.07;;;8.70;98.60;;;;;;5092903;28;20400;-70
2020/12/07 04:09:58;;;;;;;11.13;9.57;;;8.60;98.70;;;;;;5093469;28;20847;-69
2020/12/07 04:12:24;;;;;;;10.00;9.00;;;8.60;98.60;;;;;;5093129;28;20179;-70
2020/12/07 04:14:50;;;;;;;10.07;9.20;;;8.60;98.40;;;;;;5092873;28;20222;-69
2020/12/07 04:17:15;;;;;;;9.83;8.83;;;8.50;98.40;;;;;;5075399;28;20171;-69
2020/12/07 04:19:41;;;;;;;9.67;8.37;;;8.50;98.50;;;;;;5092634;28;20176;-69
2020/12/07 04:22:07;;;;;;;10.00;9.00;;;8.50;98.70;;;;;;5093346;28;20191;-68
2020/12/07 04:24:32;;;;;;;10.80;9.70;;;8.50;98.80;;;;;;5092607;28;20206;-69
2020/12/07 04:26:58;;;;;;;10.47;9.37;;;8.50;98.60;;;;;;5092572;28;20180;-69
2020/12/07 04:29:24;;;;;;;9.90;8.97;;;8.40;98.70;;;;;;5093026;28;20227;-70
2020/12/07 04:31:50;;;;;;;10.53;9.47;;;8.40;98.90;;;;;;5092600;28;20204;-69
2020/12/07 04:34:15;;;;;;;10.00;9.00;;;8.30;98.90;;;;;;5093174;28;20175;-69
2020/12/07 04:36:41;;;;;;;10.53;9.43;;;8.30;99.30;;;;;;5092148;28;20190;-68
2020/12/07 04:39:07;;;;;;;10.57;9.57;;;8.30;99.00;;;;;;5092929;28;20269;-69
2020/12/07 04:41:32;;;;;;;10.93;9.47;;;8.30;99.10;;;;;;5091200;28;20618;-69
2020/12/07 04:43:58;;;;;;;10.63;9.63;;;8.30;99.20;;;;;;5093245;28;20181;-68
2020/12/07 04:46:24;;;;;;;10.63;9.50;;;8.20;99.10;;;;;;5093300;28;20175;-68
2020/12/07 04:48:58;;;;;;;10.23;9.23;;;8.20;99.20;;;;;;5093542;28;20668;-69
2020/12/07 04:51:23;;;;;;;11.00;9.80;;;8.20;99.20;;;;;;5093219;28;20806;-68
2020/12/07 04:53:50;;;;;;;11.87;9.90;;;8.20;99.10;;;;;;5092615;28;20406;-68
2020/12/07 04:56:16;;;;;;;11.70;10.13;;;8.20;99.20;;;;;;5093234;28;20653;-68
2020/12/07 04:58:43;;;;;;;10.53;9.50;;;8.20;99.30;;;;;;5091981;28;20445;-68
2020/12/07 05:01:09;;;;;;;10.83;9.80;;;8.10;99.40;;;;;;5090868;28;20535;-68
2020/12/07 05:03:34;;;;;;;12.13;10.30;;;8.10;99.40;;;;;;5090448;28;20504;-69
2020/12/07 05:06:04;;;;;;;11.77;10.57;;;8.10;99.50;;;;;;5093006;28;20228;-68
2020/12/07 05:08:32;;;;;;;12.10;10.93;;;8.10;99.50;;;;;;5092339;28;20175;-69
2020/12/07 05:11:01;;;;;;;10.53;9.53;;;8.10;99.70;;;;;;5093197;28;20439;-68
2020/12/07 05:13:37;;;;;;;11.20;9.50;;;8.10;99.70;;;;;;5092206;28;20416;-70
2020/12/07 05:16:03;;;;;;;11.07;9.37;;;8.10;99.90;;;;;;5092888;28;20409;-68
2020/12/07 05:18:33;;;;;;;13.07;11.77;;;8.00;99.80;;;;;;5088449;28;20816;-69
2020/12/07 05:20:59;;;;;;;12.17;10.87;;;8.00;99.90;;;;;;5073310;28;20415;-69
2020/12/07 05:23:26;;;;;;;10.67;9.57;;;8.00;99.90;;;;;;5055139;28;20435;-70
2020/12/07 05:25:52;;;;;;;10.97;9.80;;;8.00;99.90;;;;;;5071913;28;20412;-68
2020/12/07 05:28:28;;;;;;;13.00;11.80;;;8.00;99.90;;;;;;5072539;28;21020;-68
2020/12/07 05:30:54;;;;;;;12.40;11.20;;;8.00;99.90;;;;;;5072691;28;20556;-68
2020/12/07 05:33:20;;;;;;;12.63;11.43;;;8.00;99.90;;;;;;5073391;28;20517;-69
2020/12/07 05:35:53;;;;;;;11.87;10.57;;;8.00;99.90;;;;;;5071419;28;20176;-69
2020/12/07 05:38:19;;;;;;;14.30;12.90;;;8.00;99.90;;;;;;5073046;28;20160;-68
2020/12/07 05:40:45;;;;;;;13.03;11.83;;;8.10;99.90;;;;;;5071773;28;20489;-68
2020/12/07 05:43:12;;;;;;;11.07;9.93;;;8.10;99.90;;;;;;5072315;28;20404;-68
2020/12/07 05:45:41;;;;;;;12.43;10.67;;;8.10;99.90;;;;;;5072046;28;20419;-68
2020/12/07 05:48:09;;;;;;;16.20;13.50;;;8.00;99.90;;;;;;5072428;28;20468;-68
2020/12/07 05:50:43;;;;;;;14.73;11.80;;;8.00;99.90;;;;;;5068568;28;20462;-68
2020/12/07 05:53:09;;;;;;;13.20;11.90;;;8.00;99.90;;;;;;5074665;28;20747;-68
2020/12/07 05:55:35;;;;;;;13.40;11.97;;;8.10;99.90;;;;;;5075769;28;20421;-68
2020/12/07 05:58:06;;;;;;;13.70;11.83;;;8.10;99.90;;;;;;5076302;28;20399;-68
2020/12/07 06:00:36;;;;;;;16.23;14.60;;;8.00;99.90;;;;;;5075669;28;20490;-68
2020/12/07 06:03:04;;;;;;;16.57;12.60;;;8.10;99.90;;;;;;5076588;28;20747;-69
2020/12/07 06:05:30;;;;;;;16.43;14.83;;;8.10;99.90;;;;;;5075599;28;20407;-69
2020/12/07 06:08:01;;;;;;;16.87;15.10;;;8.10;99.90;;;;;;5076351;28;20754;-68
2020/12/07 06:10:33;;;;;;;14.63;12.67;;;8.10;99.90;;;;;;5076187;28;20848;-68
2020/12/07 06:13:02;;;;;;;17.30;14.00;;;8.10;99.90;;;;;;5076035;28;20402;-69
2020/12/07 06:15:30;;;;;;;16.60;14.90;;;8.10;99.90;;;;;;5075884;28;20381;-68
2020/12/07 06:17:56;;;;;;;14.40;12.73;;;8.10;99.90;;;;;;5075856;28;20406;-69
2020/12/07 06:20:33;;;;;;;18.03;15.30;;;8.10;99.90;;;;;;5075140;28;20480;-68
2020/12/07 06:23:01;;;;;;;17.07;15.27;;;8.10;99.90;;;;;;5089251;28;20187;-69
2020/12/07 06:25:31;;;;;;;16.50;13.60;;;8.10;99.90;;;;;;5096211;28;20931;-69
2020/12/07 06:28:00;;;;;;;17.13;15.43;;;8.10;99.90;;;;;;5096446;28;20761;-68
2020/12/07 06:30:31;;;;;;;16.67;14.80;;;8.00;99.90;;;;;;5095657;28;20477;-69
2020/12/07 06:32:57;;;;;;;18.10;13.10;;;8.00;99.90;;;;;;5096258;28;20418;-69
2020/12/07 06:35:26;;;;;;;16.13;13.30;;;8.10;99.90;;;;;;5095817;28;20409;-69
2020/12/07 06:37:52;;;;;;;16.20;14.00;;;8.10;99.90;;;;;;5095149;28;20768;-69
2020/12/07 06:40:20;;;;;;;15.40;13.90;;;8.00;99.90;;;;;;5095750;28;20405;-69
2020/12/07 06:42:47;;;;;;;15.70;14.20;;;8.10;99.90;;;;;;5095128;28;20536;-69
2020/12/07 06:45:32;;;;;;;16.60;12.43;;;8.10;99.90;;;;;;5095630;28;20897;-69
2020/12/07 06:48:09;;;;;;;13.93;12.43;;;8.10;99.90;;;;;;5077653;28;20741;-69
2020/12/07 06:50:40;;;;;;;14.43;12.40;;;8.00;99.90;;;;;;5094772;28;20587;-69
2020/12/07 06:53:47;;;;;;;15.63;14.07;;;8.00;99.90;;;;;;5095487;28;20418;-69
2020/12/07 06:56:10;;;;;;;12.80;10.40;;;8.00;99.90;;;;;;5094460;28;20426;-69
2020/12/07 06:58:40;;;;;;;13.50;11.80;;;8.00;99.90;;;;;;5094709;28;20417;-69
2020/12/07 07:01:13;;;;;;;13.23;11.93;;;8.10;99.90;;;;;;5095359;28;20190;-69
2020/12/07 07:03:50;;;;;;;11.47;9.90;;;8.10;99.90;;;;;;5094096;28;20426;-69
2020/12/07 07:06:20;;;;;;;13.30;12.07;;;8.10;99.90;;;;;;5095372;28;20459;-69
2020/12/07 07:08:47;;;;;;;11.83;10.60;;;8.10;99.90;;;;;;5094571;28;20558;-69
2020/12/07 07:11:13;;;;;;;11.43;10.43;;;8.10;99.90;;;;;;5095119;28;20441;-69
2020/12/07 07:13:39;;;;;;;12.60;10.53;;;8.00;99.90;;;;;;5094557;28;20410;-69
2020/12/07 07:16:06;;;;;;;13.00;11.63;;;8.00;99.90;;;;;;5095107;28;20631;-69
2020/12/07 07:18:32;;;;;;;10.37;9.27;;;8.10;99.90;;;;;;5095351;28;20191;-69
2020/12/07 07:21:04;;;;;;;10.30;9.27;;;8.10;99.90;;;;;;5094387;28;20389;-69
2020/12/07 07:23:31;;;;;;;10.30;9.30;;;8.10;99.90;;;;;;5094769;28;20413;-69
2020/12/07 07:26:17;;;;;;;9.53;8.57;;;8.10;99.90;;;;;;5094254;28;20413;-69
2020/12/07 07:28:46;;;;;;;9.33;8.47;;;8.10;99.90;;;;;;5094029;28;20912;-69
2020/12/07 07:31:12;;;;;;;9.37;8.53;;;8.10;99.90;;;;;;5094219;28;20538;-69
2020/12/07 07:33:38;;;;;;;9.60;8.67;;;8.10;99.90;;;;;;5092609;28;20393;-70
2020/12/07 07:36:03;;;;;;;8.73;7.83;;;8.00;99.90;;;;;;5084297;28;20377;-69
2020/12/07 07:38:36;;;;;;;10.50;9.40;;;8.00;99.90;;;;;;5095057;28;20289;-69
2020/12/07 07:41:02;;;;;;;11.03;10.13;;;8.00;99.90;;;;;;5094773;28;20183;-69
2020/12/07 07:43:29;;;;;;;10.37;9.33;;;8.00;99.90;;;;;;5094499;28;20493;-69
2020/12/07 07:46:02;;;;;;;8.83;7.90;;;8.00;99.90;;;;;;5093592;28;20430;-69
2020/12/07 07:48:48;;;;;;;12.07;11.07;;;8.00;99.90;;;;;;5094532;28;20389;-69
2020/12/07 07:54:16;;;;;;;9.30;8.40;;;8.00;99.90;;;;;;5093300;28;20517;-69
2020/12/07 08:15:56;;;;;;;11.57;10.00;;;7.80;99.90;;;;;;5093469;28;20451;-69
2020/12/07 08:18:37;;;;;;;11.20;10.17;;;7.80;99.90;;;;;;5093850;28;20443;-69
2020/12/07 08:21:04;;;;;;;11.53;10.47;;;7.80;99.90;;;;;;5093847;28;20489;-69
2020/12/07 08:23:32;;;;;;;13.10;11.80;;;7.70;99.90;;;;;;5093934;28;20462;-69
2020/12/07 08:26:03;;;;;;;11.40;10.30;;;7.70;99.90;;;;;;5093184;28;20600;-69
2020/12/07 08:28:37;;;;;;;13.03;11.63;;;7.70;99.90;;;;;;5093543;28;20813;-69
2020/12/07 08:31:12;;;;;;;12.97;11.63;;;7.70;99.90;;;;;;5093367;28;20465;-69
2020/12/07 08:33:52;;;;;;;12.90;10.60;;;7.80;99.90;;;;;;5093644;28;20420;-70
2020/12/07 08:36:18;;;;;;;14.60;13.17;;;7.80;99.90;;;;;;5092611;28;20826;-69
2020/12/07 08:38:45;;;;;;;13.30;11.90;;;7.80;99.90;;;;;;5092336;28;20454;-69
2020/12/07 08:41:18;;;;;;;24.10;17.33;;;7.80;99.90;;;;;;5093356;28;20420;-69
2020/12/07 08:43:47;;;;;;;15.37;13.70;;;7.80;99.90;;;;;;5092914;28;20423;-69
2020/12/07 08:46:16;;;;;;;15.53;13.77;;;7.80;99.90;;;;;;5093362;28;20405;-69
2020/12/07 08:48:42;;;;;;;14.80;12.43;;;7.80;99.90;;;;;;5092720;28;20432;-69
2020/12/07 08:51:09;;;;;;;14.10;12.60;;;7.80;99.90;;;;;;5093170;28;20458;-69
2020/12/07 08:53:38;;;;;;;13.40;12.03;;;7.80;99.90;;;;;;5093342;28;20170;-69
2020/12/07 08:56:06;;;;;;;14.03;12.37;;;7.70;99.90;;;;;;5092966;28;20807;-69
2020/12/07 08:58:33;;;;;;;13.93;12.43;;;7.60;99.90;;;;;;5093137;28;20408;-69
2020/12/07 09:01:02;;;;;;;15.60;13.20;;;7.60;99.90;;;;;;5092242;28;20391;-69
2020/12/07 09:03:28;;;;;;;15.10;13.70;;;7.70;99.90;;;;;;5075056;28;20907;-69
2020/12/07 09:05:53;;;;;;;13.60;12.20;;;7.60;99.90;;;;;;5092353;28;20408;-69
2020/12/07 09:08:19;;;;;;;12.73;11.43;;;7.60;99.90;;;;;;5092558;28;20187;-69
2020/12/07 09:10:45;;;;;;;12.73;11.43;;;7.70;99.90;;;;;;5092144;28;20696;-69
2020/12/07 09:13:11;;;;;;;15.50;13.03;;;7.60;99.90;;;;;;5092851;28;20257;-69
2020/12/07 09:15:36;;;;;;;15.47;11.57;;;7.70;99.90;;;;;;5092684;28;20173;-69
2020/12/07 09:18:02;;;;;;;21.23;16.43;;;7.70;99.90;;;;;;5092272;28;20200;-69
2020/12/07 09:20:28;;;;;;;15.33;13.43;;;7.70;99.90;;;;;;5093208;28;20182;-69
2020/12/07 09:22:54;;;;;;;17.33;12.37;;;7.70;99.90;;;;;;5092088;28;20175;-70
2020/12/07 09:25:19;;;;;;;14.80;12.60;;;7.80;99.90;;;;;;5092757;28;20177;-69
2020/12/07 09:27:45;;;;;;;13.43;11.53;;;7.80;99.90;;;;;;5091615;28;20556;-69
2020/12/07 09:30:11;;;;;;;13.37;11.90;;;7.80;99.90;;;;;;5092436;28;20267;-69
2020/12/07 09:32:37;;;;;;;13.50;11.63;;;7.80;99.90;;;;;;5085932;28;20211;-69
2020/12/07 09:35:06;;;;;;;13.70;12.30;;;7.80;99.90;;;;;;5092683;28;20504;-69
2020/12/07 09:37:32;;;;;;;13.63;11.00;;;7.80;99.90;;;;;;5093035;28;20421;-69
2020/12/07 09:39:57;;;;;;;13.50;12.10;;;7.90;99.90;;;;;;5092021;28;20482;-69
2020/12/07 09:42:23;;;;;;;11.43;10.23;;;7.90;99.90;;;;;;5092607;28;20672;-69
2020/12/07 09:44:49;;;;;;;12.90;10.77;;;7.90;99.90;;;;;;5091945;28;20170;-69
2020/12/07 09:47:15;;;;;;;9.67;8.70;;;7.90;99.80;;;;;;5092582;28;20172;-69
2020/12/07 09:49:41;;;;;;;10.43;9.33;;;8.00;99.80;;;;;;5079443;28;20216;-69
2020/12/07 09:52:06;;;;;;;10.70;9.23;;;8.00;99.60;;;;;;5054431;28;20259;-70
2020/12/07 09:54:37;;;;;;;10.33;9.23;;;8.00;99.60;;;;;;5072771;28;20176;-70
2020/12/07 09:57:04;;;;;;;10.80;9.10;;;8.00;99.50;;;;;;5071723;28;20456;-70
2020/12/07 09:59:30;;;;;;;10.60;9.13;;;8.00;99.60;;;;;;5072370;28;20473;-70
2020/12/07 10:01:56;;;;;;;10.33;9.27;;;8.00;99.60;;;;;;5071579;28;20438;-69
2020/12/07 10:04:22;;;;;;;10.97;9.87;;;8.10;99.60;;;;;;5070958;28;20453;-70
2020/12/07 10:06:47;;;;;;;12.40;10.87;;;8.10;99.60;;;;;;5084354;28;20880;-70
2020/12/07 10:09:13;;;;;;;11.47;10.37;;;8.10;99.50;;;;;;5092700;28;20172;-69
2020/12/07 10:11:39;;;;;;;11.70;10.60;;;8.10;99.50;;;;;;5092386;28;20444;-70
2020/12/07 10:14:05;;;;;;;11.23;10.07;;;8.20;99.60;;;;;;5081665;28;20208;-69
2020/12/07 10:16:30;;;;;;;11.60;10.57;;;8.20;99.60;;;;;;5092705;28;20340;-69
2020/12/07 10:18:56;;;;;;;11.30;10.20;;;8.20;99.60;;;;;;5090162;28;20179;-70
2020/12/07 10:21:25;;;;;;;10.90;10.00;;;8.20;99.60;;;;;;5089959;28;20627;-69
2020/12/07 10:23:51;;;;;;;12.10;10.93;;;8.20;99.40;;;;;;5089908;28;20186;-70
2020/12/07 10:26:24;;;;;;;10.47;9.37;;;8.20;99.40;;;;;;5089663;28;20489;-70
2020/12/07 10:28:53;;;;;;;12.90;11.70;;;8.20;99.40;;;;;;5088832;28;20407;-70
2020/12/07 10:31:19;;;;;;;10.37;9.37;;;8.20;99.40;;;;;;5087293;28;20464;-69
2020/12/07 10:33:46;;;;;;;12.20;10.23;;;8.20;99.20;;;;;;5089790;28;20428;-71
2020/12/07 10:36:13;;;;;;;11.93;10.80;;;8.20;99.30;;;;;;5088335;28;20414;-69
2020/12/07 10:38:39;;;;;;;11.50;10.40;;;8.30;99.60;;;;;;5092149;28;20415;-69
2020/12/07 10:41:04;;;;;;;12.00;10.00;;;8.30;99.50;;;;;;5094827;28;20748;-69
2020/12/07 10:43:31;;;;;;;11.53;10.33;;;8.30;99.50;;;;;;5095746;28;20432;-69
2020/12/07 10:45:57;;;;;;;13.63;12.23;;;8.30;99.50;;;;;;5075549;28;20500;-69
2020/12/07 10:48:23;;;;;;;11.30;10.17;;;8.20;99.30;;;;;;5074873;28;20410;-69
2020/12/07 10:50:48;;;;;;;12.80;11.60;;;8.10;99.60;;;;;;5074677;28;20469;-69
2020/12/07 10:53:14;;;;;;;12.37;10.57;;;8.20;99.70;;;;;;5085542;28;20187;-69
2020/12/07 10:55:40;;;;;;;12.23;11.13;;;8.20;99.50;;;;;;5090945;28;20546;-69
2020/12/07 10:58:06;;;;;;;10.83;9.70;;;8.20;99.20;;;;;;5094367;28;20444;-70
2020/12/07 11:00:32;;;;;;;11.43;10.33;;;8.20;99.30;;;;;;5094670;28;20944;-70
2020/12/07 11:02:58;;;;;;;10.80;9.70;;;8.20;99.40;;;;;;5094678;28;20690;-70
2020/12/07 11:05:24;;;;;;;10.73;9.63;;;8.30;99.20;;;;;;5095200;28;20402;-70
2020/12/07 11:07:52;;;;;;;11.10;9.57;;;8.10;99.00;;;;;;5094461;28;20168;-69
2020/12/07 11:10:18;;;;;;;15.40;12.17;;;8.10;99.40;;;;;;5094967;28;20566;-69
2020/12/07 11:12:48;;;;;;;14.30;12.80;;;8.20;99.60;;;;;;5094709;28;20484;-70
2020/12/07 11:15:14;;;;;;;12.43;9.70;;;8.20;99.60;;;;;;5094783;28;20171;-70
2020/12/07 11:17:40;;;;;;;10.00;9.00;;;8.20;99.50;;;;;;5094879;28;20480;-70
2020/12/07 11:20:05;;;;;;;11.00;10.00;;;8.30;99.70;;;;;;5094253;28;20615;-70
2020/12/07 11:22:31;;;;;;;12.23;10.07;;;8.30;99.50;;;;;;5094569;28;20548;-70
2020/12/07 11:24:57;;;;;;;9.97;8.97;;;8.40;99.50;;;;;;5090617;28;20199;-71
2020/12/07 11:27:22;;;;;;;10.10;9.20;;;8.40;99.70;;;;;;5094477;28;20176;-70
2020/12/07 11:29:48;;;;;;;9.37;8.40;;;8.40;99.40;;;;;;5093622;28;20628;-71
2020/12/07 11:32:14;;;;;;;10.33;9.13;;;8.40;99.40;;;;;;5095022;28;20254;-70
2020/12/07 11:34:40;;;;;;;9.97;8.97;;;8.50;99.70;;;;;;5094695;28;20188;-70
2020/12/07 11:37:05;;;;;;;10.47;9.63;;;8.40;99.50;;;;;;5094035;28;20179;-71
2020/12/07 11:39:44;;;;;;;9.07;8.20;;;8.40;99.60;;;;;;5094574;28;20674;-70
2020/12/07 11:42:23;;;;;;;9.80;8.80;;;8.30;99.30;;;;;;5093557;28;20186;-70
2020/12/07 11:44:48;;;;;;;10.03;9.10;;;8.30;99.80;;;;;;5093807;28;20484;-71
2020/12/07 11:47:14;;;;;;;9.27;8.37;;;8.40;99.60;;;;;;5094221;28;20500;-70
2020/12/07 11:49:41;;;;;;;9.20;8.40;;;8.40;99.90;;;;;;5093758;28;20199;-70
2020/12/07 11:52:07;;;;;;;9.10;8.00;;;8.40;99.90;;;;;;5093164;28;20773;-70
2020/12/07 11:54:35;;;;;;;8.80;8.00;;;8.50;99.90;;;;;;5089574;28;20417;-70
2020/12/07 11:57:04;;;;;;;8.23;7.43;;;8.50;99.90;;;;;;5093202;28;20250;-70
2020/12/07 11:59:30;;;;;;;8.20;7.60;;;8.50;99.80;;;;;;5093582;28;20468;-70
2020/12/07 12:01:56;;;;;;;8.40;7.70;;;8.50;99.60;;;;;;5093258;28;20774;-70
2020/12/07 12:04:22;;;;;;;8.67;7.87;;;8.40;99.40;;;;;;5094083;28;20290;-69
2020/12/07 12:06:48;;;;;;;8.77;8.13;;;8.50;99.50;;;;;;5093690;28;20175;-70
2020/12/07 12:09:15;;;;;;;8.47;7.67;;;8.40;99.50;;;;;;5094001;28;20185;-69
2020/12/07 12:11:43;;;;;;;7.40;6.80;;;8.40;99.90;;;;;;5092720;28;20493;-69
2020/12/07 12:14:10;;;;;;;8.37;7.67;;;8.50;99.90;;;;;;5092540;28;20490;-70
2020/12/07 12:16:39;;;;;;;8.43;7.60;;;8.50;99.90;;;;;;5093442;28;20462;-69
2020/12/07 12:19:09;;;;;;;7.70;7.10;;;8.50;99.90;;;;;;5092771;28;20447;-70
2020/12/07 12:21:36;;;;;;;8.33;7.73;;;8.60;99.80;;;;;;5093761;28;20399;-70
2020/12/07 12:24:05;;;;;;;8.80;8.10;;;8.60;99.60;;;;;;5090282;28;20904;-70
2020/12/07 12:26:32;;;;;;;9.63;8.83;;;8.60;99.80;;;;;;5073372;28;20510;-70
2020/12/07 12:28:59;;;;;;;8.93;8.23;;;8.60;99.60;;;;;;5072203;28;20738;-69
2020/12/07 12:31:25;;;;;;;7.87;7.17;;;8.60;99.40;;;;;;5073026;28;20942;-70
2020/12/07 12:33:53;;;;;;;7.50;7.00;;;8.60;99.50;;;;;;5089593;28;20490;-70
2020/12/07 12:36:21;;;;;;;7.90;7.30;;;8.50;99.50;;;;;;5093476;28;20590;-69
2020/12/07 12:38:47;;;;;;;10.97;9.87;;;8.60;99.40;;;;;;5093218;28;20552;-69
2020/12/07 12:41:14;;;;;;;6.90;6.40;;;8.60;99.40;;;;;;5093495;28;20425;-69
2020/12/07 12:43:40;;;;;;;6.97;6.40;;;8.60;99.60;;;;;;5093584;28;20483;-69
2020/12/07 12:46:07;;;;;;;6.60;6.10;;;8.50;99.30;;;;;;5092564;28;20888;-69
2020/12/07 12:48:34;;;;;;;6.20;5.80;;;8.60;99.70;;;;;;5093273;28;20410;-70
2020/12/07 12:51:00;;;;;;;5.37;5.07;;;8.70;99.80;;;;;;5092481;28;20432;-69
2020/12/07 12:53:28;;;;;;;5.83;5.43;;;8.70;99.20;;;;;;5093273;28;20509;-69
2020/12/07 12:55:54;;;;;;;6.17;5.77;;;8.70;99.20;;;;;;5074287;28;20434;-69
2020/12/07 12:58:19;;;;;;;7.63;7.03;;;8.70;99.20;;;;;;5093090;28;20412;-69
2020/12/07 13:00:48;;;;;;;5.40;5.00;;;8.70;99.10;;;;;;5092782;28;20411;-69
2020/12/07 13:03:14;;;;;;;6.07;5.67;;;8.60;99.00;;;;;;5092286;28;20616;-69
2020/12/07 13:05:40;;;;;;;4.43;4.13;;;8.70;99.00;;;;;;5092929;28;20394;-69
2020/12/07 13:08:06;;;;;;;5.97;5.47;;;8.70;99.10;;;;;;5092286;28;20420;-69